sensor_id;sensor_type;location;lat;lon;timestamp;temperature;humidity
11615;DHT22;5863;52.832;4.758;2023-06-22T00:01:00;16.40;99.90
11615;DHT22;5863;52.832;4.758;2023-06-22T00:03:26;16.50;99.90
11615;DHT22;5863;52.832;4.758;2023-06-22T00:05:53;16.50;99.90
11615;DHT22;5863;52.832;4.758;2023-06-22T00:08:20;16.50;99.90
11615;DHT22;5863;52.832;4.758;2023-06-22T00:10:48;16.40;99.90
11615;DHT22;5863;52.832;4.758;2023-06-22T00:13:15;16.50;99.90
11615;DHT22;5863;52.832;4.758;2023-06-22T00:15:43;16.50;99.90
11615;DHT22;5863;52.832;4.758;2023-06-22T00:18:10;16.50;99.90
11615;DHT22;5863;52.832;4.758;2023-06-22T00:20:37;16.50;99.90
11615;DHT22;5863;52.832;4.758;2023-06-22T00:23:06;16.50;99.90
11615;DHT22;5863;52.832;4.758;2023-06-22T00:25:34;16.40;99.90
11615;DHT22;5863;52.832;4.758;2023-06-22T00:28:03;16.50;99.90
11615;DHT22;5863;52.832;4.758;2023-06-22T00:30:30;16.40;99.90
11615;DHT22;5863;52.832;4.758;2023-06-22T00:32:58;16.50;99.90
11615;DHT22;5863;52.832;4.758;2023-06-22T00:35:25;16.50;99.90
11615;DHT22;5863;52.832;4.758;2023-06-22T00:37:54;16.50;99.90
11615;DHT22;5863;52.832;4.758;2023-06-22T00:40:26;16.60;99.90
11615;DHT22;5863;52.832;4.758;2023-06-22T00:42:53;16.50;99.90
11615;DHT22;5863;52.832;4.758;2023-06-22T00:45:24;16.40;99.90
11615;DHT22;5863;52.832;4.758;2023-06-22T00:47:52;16.40;99.90
11615;DHT22;5863;52.832;4.758;2023-06-22T00:50:20;16.40;99.90
11615;DHT22;5863;52.832;4.758;2023-06-22T00:52:49;16.30;99.90
11615;DHT22;5863;52.832;4.758;2023-06-22T00:55:18;16.30;99.90
11615;DHT22;5863;52.832;4.758;2023-06-22T00:57:45;16.30;99.90
11615;DHT22;5863;52.832;4.758;2023-06-22T01:00:13;16.30;99.90
11615;DHT22;5863;52.832;4.758;2023-06-22T01:02:43;16.20;99.90
11615;DHT22;5863;52.832;4.758;2023-06-22T01:05:12;16.20;99.90
11615;DHT22;5863;52.832;4.758;2023-06-22T01:07:43;16.20;99.90
11615;DHT22;5863;52.832;4.758;2023-06-22T01:10:18;16.20;99.90
11615;DHT22;5863;52.832;4.758;2023-06-22T01:12:51;16.20;99.90
11615;DHT22;5863;52.832;4.758;2023-06-22T01:15:23;16.20;99.90
11615;DHT22;5863;52.832;4.758;2023-06-22T01:17:53;16.20;99.90
11615;DHT22;5863;52.832;4.758;2023-06-22T01:20:20;16.20;99.90
11615;DHT22;5863;52.832;4.758;2023-06-22T01:23:05;16.40;99.90
11615;DHT22;5863;52.832;4.758;2023-06-22T01:25:40;16.30;99.90
11615;DHT22;5863;52.832;4.758;2023-06-22T01:28:19;16.20;99.90
11615;DHT22;5863;52.832;4.758;2023-06-22T01:30:51;16.10;99.90
11615;DHT22;5863;52.832;4.758;2023-06-22T01:33:26;15.90;99.90
11615;DHT22;5863;52.832;4.758;2023-06-22T01:35:53;16.00;99.90
11615;DHT22;5863;52.832;4.758;2023-06-22T01:38:20;15.90;99.90
11615;DHT22;5863;52.832;4.758;2023-06-22T01:40:48;15.90;99.90
11615;DHT22;5863;52.832;4.758;2023-06-22T01:43:16;15.90;99.90
11615;DHT22;5863;52.832;4.758;2023-06-22T01:45:43;15.90;99.90
11615;DHT22;5863;52.832;4.758;2023-06-22T01:48:11;15.90;99.90
11615;DHT22;5863;52.832;4.758;2023-06-22T01:50:38;15.80;99.90
11615;DHT22;5863;52.832;4.758;2023-06-22T01:53:05;15.80;99.90
11615;DHT22;5863;52.832;4.758;2023-06-22T01:55:32;15.80;99.90
11615;DHT22;5863;52.832;4.758;2023-06-22T01:57:59;15.80;99.90
11615;DHT22;5863;52.832;4.758;2023-06-22T02:00:28;15.70;99.90
11615;DHT22;5863;52.832;4.758;2023-06-22T02:02:59;15.70;99.90
11615;DHT22;5863;52.832;4.758;2023-06-22T02:05:34;15.70;99.90
11615;DHT22;5863;52.832;4.758;2023-06-22T02:08:09;15.70;99.90
11615;DHT22;5863;52.832;4.758;2023-06-22T02:10:37;15.70;99.90
11615;DHT22;5863;52.832;4.758;2023-06-22T02:13:07;15.70;99.90
11615;DHT22;5863;52.832;4.758;2023-06-22T02:15:35;15.60;99.90
11615;DHT22;5863;52.832;4.758;2023-06-22T02:18:02;15.60;99.90
11615;DHT22;5863;52.832;4.758;2023-06-22T02:20:32;15.60;99.90
11615;DHT22;5863;52.832;4.758;2023-06-22T02:22:58;15.60;99.90
11615;DHT22;5863;52.832;4.758;2023-06-22T02:25:25;15.60;99.90
11615;DHT22;5863;52.832;4.758;2023-06-22T02:27:53;15.60;99.90
11615;DHT22;5863;52.832;4.758;2023-06-22T02:30:19;15.50;99.90
11615;DHT22;5863;52.832;4.758;2023-06-22T02:32:46;15.60;99.90
11615;DHT22;5863;52.832;4.758;2023-06-22T02:35:13;15.50;99.90
11615;DHT22;5863;52.832;4.758;2023-06-22T02:37:41;15.60;99.90
11615;DHT22;5863;52.832;4.758;2023-06-22T02:40:08;15.50;99.90
11615;DHT22;5863;52.832;4.758;2023-06-22T02:42:35;15.50;99.90
11615;DHT22;5863;52.832;4.758;2023-06-22T02:45:02;15.50;99.90
11615;DHT22;5863;52.832;4.758;2023-06-22T02:47:29;15.50;99.90
11615;DHT22;5863;52.832;4.758;2023-06-22T02:49:56;15.50;99.90
11615;DHT22;5863;52.832;4.758;2023-06-22T02:52:22;15.40;99.90
11615;DHT22;5863;52.832;4.758;2023-06-22T02:54:50;15.50;99.90
11615;DHT22;5863;52.832;4.758;2023-06-22T02:57:19;15.50;99.90
11615;DHT22;5863;52.832;4.758;2023-06-22T02:59:45;15.50;99.90
11615;DHT22;5863;52.832;4.758;2023-06-22T03:02:12;15.50;99.90
11615;DHT22;5863;52.832;4.758;2023-06-22T03:04:39;15.50;99.90
11615;DHT22;5863;52.832;4.758;2023-06-22T03:07:05;15.50;99.90
11615;DHT22;5863;52.832;4.758;2023-06-22T03:09:32;15.50;99.90
11615;DHT22;5863;52.832;4.758;2023-06-22T03:12:00;15.60;99.90
11615;DHT22;5863;52.832;4.758;2023-06-22T03:14:27;15.60;99.90
11615;DHT22;5863;52.832;4.758;2023-06-22T03:16:54;15.70;99.90
11615;DHT22;5863;52.832;4.758;2023-06-22T03:19:27;15.70;99.90
11615;DHT22;5863;52.832;4.758;2023-06-22T03:21:55;15.60;99.90
11615;DHT22;5863;52.832;4.758;2023-06-22T03:24:21;15.60;99.90
11615;DHT22;5863;52.832;4.758;2023-06-22T03:26:48;15.60;99.90
11615;DHT22;5863;52.832;4.758;2023-06-22T03:29:16;15.60;99.90
11615;DHT22;5863;52.832;4.758;2023-06-22T03:31:42;15.60;99.90
11615;DHT22;5863;52.832;4.758;2023-06-22T03:34:09;15.60;99.90
11615;DHT22;5863;52.832;4.758;2023-06-22T03:36:36;15.70;99.90
11615;DHT22;5863;52.832;4.758;2023-06-22T03:39:02;15.70;99.90
11615;DHT22;5863;52.832;4.758;2023-06-22T03:41:29;15.70;99.90
11615;DHT22;5863;52.832;4.758;2023-06-22T03:43:56;15.70;99.90
11615;DHT22;5863;52.832;4.758;2023-06-22T03:46:24;15.70;99.90
11615;DHT22;5863;52.832;4.758;2023-06-22T03:48:51;15.80;99.90
11615;DHT22;5863;52.832;4.758;2023-06-22T03:51:17;15.90;99.90
11615;DHT22;5863;52.832;4.758;2023-06-22T03:53:44;15.90;99.90
11615;DHT22;5863;52.832;4.758;2023-06-22T03:56:11;16.00;99.90
11615;DHT22;5863;52.832;4.758;2023-06-22T03:58:38;16.10;99.90
11615;DHT22;5863;52.832;4.758;2023-06-22T04:01:08;16.20;99.90
11615;DHT22;5863;52.832;4.758;2023-06-22T04:03:38;16.20;99.90
11615;DHT22;5863;52.832;4.758;2023-06-22T04:06:04;16.40;99.90
11615;DHT22;5863;52.832;4.758;2023-06-22T04:08:31;16.40;99.90
11615;DHT22;5863;52.832;4.758;2023-06-22T04:10:58;16.50;99.90
11615;DHT22;5863;52.832;4.758;2023-06-22T04:13:25;16.60;99.90
11615;DHT22;5863;52.832;4.758;2023-06-22T04:15:51;16.60;99.90
11615;DHT22;5863;52.832;4.758;2023-06-22T04:18:18;16.70;99.90
11615;DHT22;5863;52.832;4.758;2023-06-22T04:20:46;16.70;99.90
11615;DHT22;5863;52.832;4.758;2023-06-22T04:23:13;16.90;99.90
11615;DHT22;5863;52.832;4.758;2023-06-22T04:25:39;17.00;99.90
11615;DHT22;5863;52.832;4.758;2023-06-22T04:28:06;17.10;99.90
11615;DHT22;5863;52.832;4.758;2023-06-22T04:30:38;17.20;99.90
11615;DHT22;5863;52.832;4.758;2023-06-22T04:33:12;17.30;99.90
11615;DHT22;5863;52.832;4.758;2023-06-22T04:35:38;17.30;99.90
11615;DHT22;5863;52.832;4.758;2023-06-22T04:38:08;17.40;99.90
11615;DHT22;5863;52.832;4.758;2023-06-22T04:40:34;17.40;99.90
11615;DHT22;5863;52.832;4.758;2023-06-22T04:43:01;17.40;99.90
11615;DHT22;5863;52.832;4.758;2023-06-22T04:45:29;17.50;99.90
11615;DHT22;5863;52.832;4.758;2023-06-22T04:47:56;17.70;99.90
11615;DHT22;5863;52.832;4.758;2023-06-22T04:50:22;17.80;99.90
11615;DHT22;5863;52.832;4.758;2023-06-22T04:52:50;17.90;99.90
11615;DHT22;5863;52.832;4.758;2023-06-22T04:55:19;18.10;99.90
11615;DHT22;5863;52.832;4.758;2023-06-22T04:57:47;18.30;99.90
11615;DHT22;5863;52.832;4.758;2023-06-22T05:00:15;18.70;99.90
11615;DHT22;5863;52.832;4.758;2023-06-22T05:02:43;19.20;99.90
11615;DHT22;5863;52.832;4.758;2023-06-22T05:05:10;19.70;99.90
11615;DHT22;5863;52.832;4.758;2023-06-22T05:07:39;20.10;99.90
11615;DHT22;5863;52.832;4.758;2023-06-22T05:10:08;20.60;99.90
11615;DHT22;5863;52.832;4.758;2023-06-22T05:12:37;20.90;99.90
11615;DHT22;5863;52.832;4.758;2023-06-22T05:15:04;21.10;99.90
11615;DHT22;5863;52.832;4.758;2023-06-22T05:17:31;21.30;99.90
11615;DHT22;5863;52.832;4.758;2023-06-22T05:20:00;21.50;99.90
11615;DHT22;5863;52.832;4.758;2023-06-22T05:22:27;21.70;99.90
11615;DHT22;5863;52.832;4.758;2023-06-22T05:24:53;22.00;99.90
11615;DHT22;5863;52.832;4.758;2023-06-22T05:27:20;22.50;99.90
11615;DHT22;5863;52.832;4.758;2023-06-22T05:29:48;22.80;99.90
11615;DHT22;5863;52.832;4.758;2023-06-22T05:32:15;23.20;99.90
11615;DHT22;5863;52.832;4.758;2023-06-22T05:34:41;23.40;99.90
11615;DHT22;5863;52.832;4.758;2023-06-22T05:37:09;23.70;99.90
11615;DHT22;5863;52.832;4.758;2023-06-22T05:39:36;23.80;99.90
11615;DHT22;5863;52.832;4.758;2023-06-22T05:42:04;23.90;99.90
11615;DHT22;5863;52.832;4.758;2023-06-22T05:44:32;24.10;99.90
11615;DHT22;5863;52.832;4.758;2023-06-22T05:47:00;24.30;99.90
11615;DHT22;5863;52.832;4.758;2023-06-22T05:49:28;24.60;99.90
11615;DHT22;5863;52.832;4.758;2023-06-22T05:51:55;24.80;99.90
11615;DHT22;5863;52.832;4.758;2023-06-22T05:54:22;25.00;99.90
11615;DHT22;5863;52.832;4.758;2023-06-22T05:56:49;25.30;99.90
11615;DHT22;5863;52.832;4.758;2023-06-22T05:59:15;25.40;99.90
11615;DHT22;5863;52.832;4.758;2023-06-22T06:01:42;25.60;99.90
11615;DHT22;5863;52.832;4.758;2023-06-22T06:04:10;25.90;99.90
11615;DHT22;5863;52.832;4.758;2023-06-22T06:06:37;26.00;99.90
11615;DHT22;5863;52.832;4.758;2023-06-22T06:09:04;26.20;99.90
11615;DHT22;5863;52.832;4.758;2023-06-22T06:11:31;26.40;99.90
11615;DHT22;5863;52.832;4.758;2023-06-22T06:13:58;26.70;99.90
11615;DHT22;5863;52.832;4.758;2023-06-22T06:16:24;27.00;99.90
11615;DHT22;5863;52.832;4.758;2023-06-22T06:18:51;27.00;99.90
11615;DHT22;5863;52.832;4.758;2023-06-22T06:21:21;27.10;99.90
11615;DHT22;5863;52.832;4.758;2023-06-22T06:23:48;27.20;99.90
11615;DHT22;5863;52.832;4.758;2023-06-22T06:26:15;27.40;99.90
11615;DHT22;5863;52.832;4.758;2023-06-22T06:28:42;27.50;99.90
11615;DHT22;5863;52.832;4.758;2023-06-22T06:31:09;27.50;99.90
11615;DHT22;5863;52.832;4.758;2023-06-22T06:33:37;27.70;99.90
11615;DHT22;5863;52.832;4.758;2023-06-22T06:36:04;28.00;99.90
11615;DHT22;5863;52.832;4.758;2023-06-22T06:38:32;28.30;99.90
11615;DHT22;5863;52.832;4.758;2023-06-22T06:40:59;28.20;99.90
11615;DHT22;5863;52.832;4.758;2023-06-22T06:43:26;28.30;99.90
11615;DHT22;5863;52.832;4.758;2023-06-22T06:45:52;28.30;99.90
11615;DHT22;5863;52.832;4.758;2023-06-22T06:48:19;28.30;99.90
11615;DHT22;5863;52.832;4.758;2023-06-22T06:50:46;28.40;99.90
11615;DHT22;5863;52.832;4.758;2023-06-22T06:53:12;28.50;99.90
11615;DHT22;5863;52.832;4.758;2023-06-22T06:55:40;28.70;99.90
11615;DHT22;5863;52.832;4.758;2023-06-22T06:58:07;28.90;99.90
11615;DHT22;5863;52.832;4.758;2023-06-22T07:00:35;29.20;99.90
11615;DHT22;5863;52.832;4.758;2023-06-22T07:03:02;29.10;99.90
11615;DHT22;5863;52.832;4.758;2023-06-22T07:05:30;29.40;99.90
11615;DHT22;5863;52.832;4.758;2023-06-22T07:07:56;29.60;99.90
11615;DHT22;5863;52.832;4.758;2023-06-22T07:10:23;29.70;99.90
11615;DHT22;5863;52.832;4.758;2023-06-22T07:12:51;29.90;99.80
11615;DHT22;5863;52.832;4.758;2023-06-22T07:15:18;30.00;99.60
11615;DHT22;5863;52.832;4.758;2023-06-22T07:17:45;30.20;98.90
11615;DHT22;5863;52.832;4.758;2023-06-22T07:20:12;30.20;98.00
11615;DHT22;5863;52.832;4.758;2023-06-22T07:22:39;30.10;98.00
11615;DHT22;5863;52.832;4.758;2023-06-22T07:25:07;30.20;98.10
11615;DHT22;5863;52.832;4.758;2023-06-22T07:27:36;30.30;98.20
11615;DHT22;5863;52.832;4.758;2023-06-22T07:30:06;30.50;97.20
11615;DHT22;5863;52.832;4.758;2023-06-22T07:32:33;30.50;97.30
11615;DHT22;5863;52.832;4.758;2023-06-22T07:35:00;30.50;96.90
11615;DHT22;5863;52.832;4.758;2023-06-22T07:37:27;30.40;96.90
11615;DHT22;5863;52.832;4.758;2023-06-22T07:39:54;30.30;97.30
11615;DHT22;5863;52.832;4.758;2023-06-22T07:42:24;30.30;96.80
11615;DHT22;5863;52.832;4.758;2023-06-22T07:44:51;30.00;96.20
11615;DHT22;5863;52.832;4.758;2023-06-22T07:47:19;29.70;96.90
11615;DHT22;5863;52.832;4.758;2023-06-22T07:49:45;29.40;97.80
11615;DHT22;5863;52.832;4.758;2023-06-22T07:52:12;29.20;98.50
11615;DHT22;5863;52.832;4.758;2023-06-22T07:54:39;29.30;98.20
11615;DHT22;5863;52.832;4.758;2023-06-22T07:57:06;29.30;98.40
11615;DHT22;5863;52.832;4.758;2023-06-22T07:59:36;29.20;98.60
11615;DHT22;5863;52.832;4.758;2023-06-22T08:02:03;29.00;98.00
11615;DHT22;5863;52.832;4.758;2023-06-22T08:04:31;28.80;98.00
11615;DHT22;5863;52.832;4.758;2023-06-22T08:07:00;28.50;97.90
11615;DHT22;5863;52.832;4.758;2023-06-22T08:09:28;28.20;98.70
11615;DHT22;5863;52.832;4.758;2023-06-22T08:11:54;28.00;99.30
11615;DHT22;5863;52.832;4.758;2023-06-22T08:14:22;27.90;99.20
11615;DHT22;5863;52.832;4.758;2023-06-22T08:16:48;27.80;99.90
11615;DHT22;5863;52.832;4.758;2023-06-22T08:19:15;27.70;99.90
11615;DHT22;5863;52.832;4.758;2023-06-22T08:21:43;27.70;99.90
11615;DHT22;5863;52.832;4.758;2023-06-22T08:24:10;27.60;99.90
11615;DHT22;5863;52.832;4.758;2023-06-22T08:26:37;27.40;99.90
11615;DHT22;5863;52.832;4.758;2023-06-22T08:29:03;27.20;99.90
11615;DHT22;5863;52.832;4.758;2023-06-22T08:31:31;27.00;99.90
11615;DHT22;5863;52.832;4.758;2023-06-22T08:33:59;26.90;99.90
11615;DHT22;5863;52.832;4.758;2023-06-22T08:36:26;26.80;99.90
11615;DHT22;5863;52.832;4.758;2023-06-22T08:38:57;26.60;99.90
11615;DHT22;5863;52.832;4.758;2023-06-22T08:41:26;26.60;99.90
11615;DHT22;5863;52.832;4.758;2023-06-22T08:43:53;26.30;99.90
11615;DHT22;5863;52.832;4.758;2023-06-22T08:46:20;26.20;99.90
11615;DHT22;5863;52.832;4.758;2023-06-22T08:48:48;26.20;99.90
11615;DHT22;5863;52.832;4.758;2023-06-22T08:51:16;26.10;99.90
11615;DHT22;5863;52.832;4.758;2023-06-22T08:53:42;26.20;99.90
11615;DHT22;5863;52.832;4.758;2023-06-22T08:56:12;26.00;99.90
11615;DHT22;5863;52.832;4.758;2023-06-22T08:58:38;26.10;99.90
11615;DHT22;5863;52.832;4.758;2023-06-22T09:01:05;26.20;99.90
11615;DHT22;5863;52.832;4.758;2023-06-22T09:03:32;26.20;99.90
11615;DHT22;5863;52.832;4.758;2023-06-22T09:06:01;26.30;99.90
11615;DHT22;5863;52.832;4.758;2023-06-22T09:08:28;26.20;99.90
11615;DHT22;5863;52.832;4.758;2023-06-22T09:10:55;26.20;99.90
11615;DHT22;5863;52.832;4.758;2023-06-22T09:13:23;26.10;99.90
11615;DHT22;5863;52.832;4.758;2023-06-22T09:15:50;26.00;99.90
11615;DHT22;5863;52.832;4.758;2023-06-22T09:18:17;25.90;99.90
11615;DHT22;5863;52.832;4.758;2023-06-22T09:20:45;25.90;99.90
11615;DHT22;5863;52.832;4.758;2023-06-22T09:23:12;25.80;99.90
11615;DHT22;5863;52.832;4.758;2023-06-22T09:25:38;25.80;99.90
11615;DHT22;5863;52.832;4.758;2023-06-22T09:28:05;25.80;99.90
11615;DHT22;5863;52.832;4.758;2023-06-22T09:30:33;25.70;99.90
11615;DHT22;5863;52.832;4.758;2023-06-22T09:33:00;25.80;99.90
11615;DHT22;5863;52.832;4.758;2023-06-22T09:35:27;25.70;99.90
11615;DHT22;5863;52.832;4.758;2023-06-22T09:37:54;25.80;99.90
11615;DHT22;5863;52.832;4.758;2023-06-22T09:40:20;25.80;99.90
11615;DHT22;5863;52.832;4.758;2023-06-22T09:42:47;25.70;99.90
11615;DHT22;5863;52.832;4.758;2023-06-22T09:45:14;25.80;99.90
11615;DHT22;5863;52.832;4.758;2023-06-22T09:47:42;25.70;99.90
11615;DHT22;5863;52.832;4.758;2023-06-22T09:50:09;25.70;99.90
11615;DHT22;5863;52.832;4.758;2023-06-22T09:52:36;25.60;99.90
11615;DHT22;5863;52.832;4.758;2023-06-22T09:55:03;25.50;99.90
11615;DHT22;5863;52.832;4.758;2023-06-22T09:57:30;25.50;99.90
11615;DHT22;5863;52.832;4.758;2023-06-22T09:59:57;25.50;99.90
11615;DHT22;5863;52.832;4.758;2023-06-22T10:02:24;25.60;99.90
11615;DHT22;5863;52.832;4.758;2023-06-22T10:04:52;25.60;99.90
11615;DHT22;5863;52.832;4.758;2023-06-22T10:07:18;25.60;99.90
11615;DHT22;5863;52.832;4.758;2023-06-22T10:09:45;25.60;99.90
11615;DHT22;5863;52.832;4.758;2023-06-22T10:12:11;25.60;99.90
11615;DHT22;5863;52.832;4.758;2023-06-22T10:14:38;25.60;99.90
11615;DHT22;5863;52.832;4.758;2023-06-22T10:17:05;25.50;99.90
11615;DHT22;5863;52.832;4.758;2023-06-22T10:19:33;25.50;99.90
11615;DHT22;5863;52.832;4.758;2023-06-22T10:22:04;25.60;99.90
11615;DHT22;5863;52.832;4.758;2023-06-22T10:24:31;25.50;99.90
11615;DHT22;5863;52.832;4.758;2023-06-22T10:26:57;25.60;99.90
11615;DHT22;5863;52.832;4.758;2023-06-22T10:29:24;25.50;99.90
11615;DHT22;5863;52.832;4.758;2023-06-22T10:31:51;25.60;99.90
11615;DHT22;5863;52.832;4.758;2023-06-22T10:34:17;25.60;99.90
11615;DHT22;5863;52.832;4.758;2023-06-22T10:36:44;25.50;99.90
11615;DHT22;5863;52.832;4.758;2023-06-22T10:39:15;25.50;99.90
11615;DHT22;5863;52.832;4.758;2023-06-22T10:41:41;25.40;99.90
11615;DHT22;5863;52.832;4.758;2023-06-22T10:44:08;25.50;99.90
11615;DHT22;5863;52.832;4.758;2023-06-22T10:46:35;25.50;99.90
11615;DHT22;5863;52.832;4.758;2023-06-22T10:49:01;25.40;99.90
11615;DHT22;5863;52.832;4.758;2023-06-22T10:51:28;25.50;99.90
11615;DHT22;5863;52.832;4.758;2023-06-22T10:53:59;25.50;99.90
11615;DHT22;5863;52.832;4.758;2023-06-22T10:56:27;25.50;99.90
11615;DHT22;5863;52.832;4.758;2023-06-22T10:58:54;25.60;99.90
11615;DHT22;5863;52.832;4.758;2023-06-22T11:01:22;25.70;99.90
11615;DHT22;5863;52.832;4.758;2023-06-22T11:03:48;25.60;99.90
11615;DHT22;5863;52.832;4.758;2023-06-22T11:06:22;25.70;99.90
11615;DHT22;5863;52.832;4.758;2023-06-22T11:08:49;25.70;99.90
11615;DHT22;5863;52.832;4.758;2023-06-22T11:11:15;25.70;99.90
11615;DHT22;5863;52.832;4.758;2023-06-22T11:13:44;25.70;99.90
11615;DHT22;5863;52.832;4.758;2023-06-22T11:16:11;25.70;99.90
11615;DHT22;5863;52.832;4.758;2023-06-22T11:18:38;25.80;99.90
11615;DHT22;5863;52.832;4.758;2023-06-22T11:21:05;25.70;99.90
11615;DHT22;5863;52.832;4.758;2023-06-22T11:23:31;25.60;99.90
11615;DHT22;5863;52.832;4.758;2023-06-22T11:25:58;25.60;99.90
11615;DHT22;5863;52.832;4.758;2023-06-22T11:28:25;25.50;99.90
11615;DHT22;5863;52.832;4.758;2023-06-22T11:30:53;25.40;99.90
11615;DHT22;5863;52.832;4.758;2023-06-22T11:33:19;25.40;99.90
11615;DHT22;5863;52.832;4.758;2023-06-22T11:35:46;25.40;99.90
11615;DHT22;5863;52.832;4.758;2023-06-22T11:38:13;25.50;99.90
11615;DHT22;5863;52.832;4.758;2023-06-22T11:40:40;25.40;99.90
11615;DHT22;5863;52.832;4.758;2023-06-22T11:43:06;25.30;99.90
11615;DHT22;5863;52.832;4.758;2023-06-22T11:45:33;25.30;99.90
11615;DHT22;5863;52.832;4.758;2023-06-22T11:48:01;25.30;99.90
11615;DHT22;5863;52.832;4.758;2023-06-22T11:50:28;25.30;99.90
11615;DHT22;5863;52.832;4.758;2023-06-22T11:52:55;25.30;99.90
11615;DHT22;5863;52.832;4.758;2023-06-22T11:55:22;25.30;99.90
11615;DHT22;5863;52.832;4.758;2023-06-22T11:57:54;25.30;99.90
11615;DHT22;5863;52.832;4.758;2023-06-22T12:00:21;25.30;99.90
11615;DHT22;5863;52.832;4.758;2023-06-22T12:02:49;25.30;99.90
11615;DHT22;5863;52.832;4.758;2023-06-22T12:05:18;25.40;99.90
11615;DHT22;5863;52.832;4.758;2023-06-22T12:07:45;25.40;99.90
11615;DHT22;5863;52.832;4.758;2023-06-22T12:10:12;25.50;99.90
11615;DHT22;5863;52.832;4.758;2023-06-22T12:12:39;25.50;99.90
11615;DHT22;5863;52.832;4.758;2023-06-22T12:15:07;25.50;99.90
11615;DHT22;5863;52.832;4.758;2023-06-22T12:17:34;25.50;99.90
11615;DHT22;5863;52.832;4.758;2023-06-22T12:20:00;25.40;99.90
11615;DHT22;5863;52.832;4.758;2023-06-22T12:22:32;25.40;99.90
11615;DHT22;5863;52.832;4.758;2023-06-22T12:24:58;25.30;99.90
11615;DHT22;5863;52.832;4.758;2023-06-22T12:27:25;25.30;99.90
11615;DHT22;5863;52.832;4.758;2023-06-22T12:29:52;25.20;99.90
11615;DHT22;5863;52.832;4.758;2023-06-22T12:32:19;25.20;99.90
11615;DHT22;5863;52.832;4.758;2023-06-22T12:34:45;25.20;99.90
11615;DHT22;5863;52.832;4.758;2023-06-22T12:37:12;25.30;99.90
11615;DHT22;5863;52.832;4.758;2023-06-22T12:39:40;25.20;99.90
11615;DHT22;5863;52.832;4.758;2023-06-22T12:42:07;25.10;99.90
11615;DHT22;5863;52.832;4.758;2023-06-22T12:44:34;25.20;99.90
11615;DHT22;5863;52.832;4.758;2023-06-22T12:47:01;25.20;99.90
11615;DHT22;5863;52.832;4.758;2023-06-22T12:49:28;25.20;99.90
11615;DHT22;5863;52.832;4.758;2023-06-22T12:51:54;25.10;99.90
11615;DHT22;5863;52.832;4.758;2023-06-22T12:54:21;25.00;99.90
11615;DHT22;5863;52.832;4.758;2023-06-22T12:56:50;24.90;99.90
11615;DHT22;5863;52.832;4.758;2023-06-22T12:59:22;24.80;99.90
11615;DHT22;5863;52.832;4.758;2023-06-22T13:01:48;24.70;99.90
11615;DHT22;5863;52.832;4.758;2023-06-22T13:04:15;24.70;99.90
11615;DHT22;5863;52.832;4.758;2023-06-22T13:06:43;24.50;99.90
11615;DHT22;5863;52.832;4.758;2023-06-22T13:09:13;24.50;99.90
11615;DHT22;5863;52.832;4.758;2023-06-22T13:11:40;24.40;99.90
11615;DHT22;5863;52.832;4.758;2023-06-22T13:14:08;24.40;99.90
11615;DHT22;5863;52.832;4.758;2023-06-22T13:16:34;24.30;99.90
11615;DHT22;5863;52.832;4.758;2023-06-22T13:19:01;24.20;99.90
11615;DHT22;5863;52.832;4.758;2023-06-22T13:21:29;24.20;99.90
11615;DHT22;5863;52.832;4.758;2023-06-22T13:23:56;24.10;99.90
11615;DHT22;5863;52.832;4.758;2023-06-22T13:26:24;24.10;99.90
11615;DHT22;5863;52.832;4.758;2023-06-22T13:28:52;24.00;99.90
11615;DHT22;5863;52.832;4.758;2023-06-22T13:31:20;24.00;99.90
11615;DHT22;5863;52.832;4.758;2023-06-22T13:33:48;24.00;99.90
11615;DHT22;5863;52.832;4.758;2023-06-22T13:36:17;24.00;99.90
11615;DHT22;5863;52.832;4.758;2023-06-22T13:38:45;24.10;99.90
11615;DHT22;5863;52.832;4.758;2023-06-22T13:41:12;24.10;99.90
11615;DHT22;5863;52.832;4.758;2023-06-22T13:43:39;24.00;99.90
11615;DHT22;5863;52.832;4.758;2023-06-22T13:46:06;23.90;99.90
11615;DHT22;5863;52.832;4.758;2023-06-22T13:48:34;23.80;99.90
11615;DHT22;5863;52.832;4.758;2023-06-22T13:51:00;23.80;99.90
11615;DHT22;5863;52.832;4.758;2023-06-22T13:53:27;23.70;99.90
11615;DHT22;5863;52.832;4.758;2023-06-22T13:55:55;23.70;99.90
11615;DHT22;5863;52.832;4.758;2023-06-22T13:58:23;23.70;99.90
11615;DHT22;5863;52.832;4.758;2023-06-22T14:00:50;23.60;99.90
11615;DHT22;5863;52.832;4.758;2023-06-22T14:03:16;23.50;99.90
11615;DHT22;5863;52.832;4.758;2023-06-22T14:05:44;23.50;99.90
11615;DHT22;5863;52.832;4.758;2023-06-22T14:08:12;23.40;99.90
11615;DHT22;5863;52.832;4.758;2023-06-22T14:10:40;23.40;99.90
11615;DHT22;5863;52.832;4.758;2023-06-22T14:13:06;23.40;99.90
11615;DHT22;5863;52.832;4.758;2023-06-22T14:15:33;23.30;99.90
11615;DHT22;5863;52.832;4.758;2023-06-22T14:18:00;23.30;99.90
11615;DHT22;5863;52.832;4.758;2023-06-22T14:20:26;23.30;99.90
11615;DHT22;5863;52.832;4.758;2023-06-22T14:22:55;23.20;99.90
11615;DHT22;5863;52.832;4.758;2023-06-22T14:25:21;23.10;99.90
11615;DHT22;5863;52.832;4.758;2023-06-22T14:27:48;23.10;99.90
11615;DHT22;5863;52.832;4.758;2023-06-22T14:30:16;23.00;99.90
11615;DHT22;5863;52.832;4.758;2023-06-22T14:32:43;23.00;99.90
11615;DHT22;5863;52.832;4.758;2023-06-22T14:35:10;23.00;99.90
11615;DHT22;5863;52.832;4.758;2023-06-22T14:37:37;23.00;99.90
11615;DHT22;5863;52.832;4.758;2023-06-22T14:40:06;22.90;99.90
11615;DHT22;5863;52.832;4.758;2023-06-22T14:42:33;22.90;99.90
11615;DHT22;5863;52.832;4.758;2023-06-22T14:44:59;22.80;99.90
11615;DHT22;5863;52.832;4.758;2023-06-22T14:47:26;22.80;99.90
11615;DHT22;5863;52.832;4.758;2023-06-22T14:49:54;22.80;99.90
11615;DHT22;5863;52.832;4.758;2023-06-22T14:52:23;22.80;99.90
11615;DHT22;5863;52.832;4.758;2023-06-22T14:54:50;22.80;99.90
11615;DHT22;5863;52.832;4.758;2023-06-22T14:57:19;22.80;99.90
11615;DHT22;5863;52.832;4.758;2023-06-22T14:59:48;22.80;99.90
11615;DHT22;5863;52.832;4.758;2023-06-22T15:02:15;22.70;99.90
11615;DHT22;5863;52.832;4.758;2023-06-22T15:04:42;22.70;99.90
11615;DHT22;5863;52.832;4.758;2023-06-22T15:07:09;22.70;99.90
11615;DHT22;5863;52.832;4.758;2023-06-22T15:09:37;22.70;99.90
11615;DHT22;5863;52.832;4.758;2023-06-22T15:12:07;22.70;99.90
11615;DHT22;5863;52.832;4.758;2023-06-22T15:14:39;22.70;99.90
11615;DHT22;5863;52.832;4.758;2023-06-22T15:17:06;22.70;99.90
11615;DHT22;5863;52.832;4.758;2023-06-22T15:19:34;22.60;99.90
11615;DHT22;5863;52.832;4.758;2023-06-22T15:22:01;22.60;99.90
11615;DHT22;5863;52.832;4.758;2023-06-22T15:24:28;22.60;99.90
11615;DHT22;5863;52.832;4.758;2023-06-22T15:26:54;22.60;99.90
11615;DHT22;5863;52.832;4.758;2023-06-22T15:29:21;22.60;99.90
11615;DHT22;5863;52.832;4.758;2023-06-22T15:31:49;22.60;99.90
11615;DHT22;5863;52.832;4.758;2023-06-22T15:34:16;22.50;99.90
11615;DHT22;5863;52.832;4.758;2023-06-22T15:36:43;22.50;99.90
11615;DHT22;5863;52.832;4.758;2023-06-22T15:39:09;22.50;99.90
11615;DHT22;5863;52.832;4.758;2023-06-22T15:41:39;22.50;99.90
11615;DHT22;5863;52.832;4.758;2023-06-22T15:44:06;22.50;99.90
11615;DHT22;5863;52.832;4.758;2023-06-22T15:46:32;22.40;99.90